Highland City, Florida
Current Conditions -  °F | °C
As of 3:47 PM on Wednesday 26 Nov 2014 (Local Time) from KBOW Reporting Station
Scattered Clouds Scattered Clouds  
Wind Chill: 14°   Ceiling: Unl
Heat Index: 14°   Visibility: 10mi
Dew Point:   Wind: 6mph
Humidity: 67%   Direction: 340°NNW
Pressure: 30.15"   Gusts: NA
Location:  27.97°N, 81.88°W
Report Text: KBOW 262047Z 34005KT 10SM SCT150 14/08 A3015
Loading
Personal Weather Stations






























Interactive Weather Map New forecast layout! Learn more

10-Day Weather Forecast

Advertisements
Track Severe Weather on mobile